createdAt,value
2022-10-26T00:01:21.936Z,13.70
2022-10-26T00:03:49.906Z,13.80
2022-10-26T00:06:19.838Z,13.90
2022-10-26T00:08:49.825Z,13.90
2022-10-26T00:11:18.640Z,13.90
2022-10-26T00:13:47.944Z,14.00
2022-10-26T00:16:18.723Z,14.00
2022-10-26T00:18:47.171Z,14.00
2022-10-26T00:21:15.414Z,14.00
2022-10-26T00:23:43.356Z,14.10
2022-10-26T00:26:12.873Z,14.10
2022-10-26T00:28:40.801Z,14.10
2022-10-26T00:31:12.761Z,14.10
2022-10-26T00:33:40.634Z,14.20
2022-10-26T00:36:10.329Z,14.20
2022-10-26T00:38:38.397Z,14.20
2022-10-26T00:41:06.686Z,14.30
2022-10-26T00:43:41.581Z,14.30
2022-10-26T00:46:14.345Z,14.30
2022-10-26T00:48:46.722Z,14.40
2022-10-26T00:51:19.963Z,14.40
2022-10-26T00:53:48.259Z,14.40
2022-10-26T00:56:16.985Z,14.40
2022-10-26T00:58:46.672Z,14.40
2022-10-26T01:01:14.869Z,14.50
2022-10-26T01:03:43.904Z,14.50
2022-10-26T01:06:13.227Z,14.40
2022-10-26T01:08:42.637Z,14.50
2022-10-26T01:11:11.824Z,14.50
2022-10-26T01:13:40.412Z,14.40
2022-10-26T01:16:23.355Z,14.40
2022-10-26T01:18:59.807Z,14.40
2022-10-26T01:21:48.219Z,14.40
2022-10-26T01:24:49.240Z,14.40
2022-10-26T01:27:30.583Z,14.50
2022-10-26T01:30:31.906Z,14.50
2022-10-26T01:33:14.809Z,14.50
2022-10-26T01:35:50.933Z,14.50
2022-10-26T01:38:27.370Z,14.60
2022-10-26T01:41:03.760Z,14.60
2022-10-26T01:43:37.066Z,14.60
2022-10-26T01:46:08.354Z,14.60
2022-10-26T01:48:37.349Z,14.60
2022-10-26T01:51:07.240Z,14.60
2022-10-26T01:53:35.073Z,14.60
2022-10-26T01:56:03.347Z,14.70
2022-10-26T01:59:04.440Z,14.70
2022-10-26T02:01:47.962Z,14.70
2022-10-26T02:04:27.890Z,14.70
2022-10-26T02:07:03.524Z,14.70
2022-10-26T02:09:38.929Z,14.80
2022-10-26T02:12:14.157Z,14.80
2022-10-26T02:14:49.286Z,14.80
2022-10-26T02:17:26.640Z,14.80
2022-10-26T02:19:59.598Z,14.80
2022-10-26T02:22:33.109Z,14.80
2022-10-26T02:25:05.754Z,14.80
2022-10-26T02:27:38.612Z,14.80
2022-10-26T02:30:08.242Z,14.90
2022-10-26T02:32:41.933Z,14.90
2022-10-26T02:35:10.704Z,14.90
2022-10-26T02:37:39.776Z,14.90
2022-10-26T02:40:13.943Z,14.90
2022-10-26T02:42:44.045Z,14.90
2022-10-26T02:45:16.219Z,14.90
2022-10-26T02:47:45.878Z,14.90
2022-10-26T02:50:14.258Z,15.00
2022-10-26T02:52:48.988Z,15.10
2022-10-26T02:55:23.469Z,15.10
2022-10-26T02:57:55.629Z,15.20
2022-10-26T03:00:23.442Z,15.30
2022-10-26T03:02:57.172Z,15.30
2022-10-26T03:05:27.594Z,15.40
2022-10-26T03:07:56.166Z,15.50
2022-10-26T03:10:24.365Z,15.50
2022-10-26T03:12:52.624Z,15.60
2022-10-26T03:15:20.572Z,15.60
2022-10-26T03:17:48.639Z,15.70
2022-10-26T03:20:18.549Z,15.80
2022-10-26T03:22:48.572Z,15.80
2022-10-26T03:25:16.974Z,15.80
2022-10-26T03:27:45.337Z,15.80
2022-10-26T03:30:13.301Z,15.90
2022-10-26T03:32:41.097Z,15.90
2022-10-26T03:35:09.664Z,15.90
2022-10-26T03:37:38.858Z,15.90
2022-10-26T03:40:07.689Z,16.00
2022-10-26T03:42:37.649Z,16.00
2022-10-26T03:45:06.960Z,16.00
2022-10-26T03:47:34.806Z,16.00
2022-10-26T03:50:02.709Z,16.00
2022-10-26T03:52:30.549Z,16.00
2022-10-26T03:54:59.724Z,16.00
2022-10-26T03:57:27.539Z,16.00
2022-10-26T03:59:55.348Z,16.00
2022-10-26T04:02:23.137Z,16.00
2022-10-26T04:04:50.946Z,16.00
2022-10-26T04:07:18.785Z,16.00
2022-10-26T04:09:46.621Z,16.00
2022-10-26T04:12:15.832Z,16.00
2022-10-26T04:14:43.644Z,16.00
2022-10-26T04:17:11.470Z,16.00
2022-10-26T04:19:39.274Z,15.90
2022-10-26T04:22:07.092Z,16.00
2022-10-26T04:24:34.872Z,16.00
2022-10-26T04:27:02.721Z,16.00
2022-10-26T04:29:31.935Z,16.00
2022-10-26T04:31:59.752Z,16.10
2022-10-26T04:34:27.571Z,16.10
2022-10-26T04:36:56.350Z,16.10
2022-10-26T04:39:24.242Z,16.10
2022-10-26T04:41:52.118Z,16.10
2022-10-26T04:44:19.914Z,16.10
2022-10-26T04:46:49.073Z,16.10
2022-10-26T04:49:16.908Z,16.20
2022-10-26T04:51:44.820Z,16.20
2022-10-26T04:54:12.745Z,16.20
2022-10-26T04:56:40.638Z,16.20
2022-10-26T04:59:08.492Z,16.20
2022-10-26T05:01:36.440Z,16.20
2022-10-26T05:04:05.847Z,16.30
2022-10-26T05:06:33.709Z,16.30
2022-10-26T05:09:02.861Z,16.30
2022-10-26T05:11:30.752Z,16.30
2022-10-26T05:13:58.587Z,16.30
2022-10-26T05:16:26.446Z,16.40
2022-10-26T05:18:54.249Z,16.40
2022-10-26T05:21:23.496Z,16.40
2022-10-26T05:23:52.463Z,16.40
2022-10-26T05:26:20.383Z,16.40
2022-10-26T05:28:48.180Z,16.50
2022-10-26T05:31:16.049Z,16.50
2022-10-26T05:33:43.877Z,16.50
2022-10-26T05:36:11.732Z,16.50
2022-10-26T05:38:40.897Z,16.60
2022-10-26T05:41:08.819Z,16.60
2022-10-26T05:43:36.634Z,16.60
2022-10-26T05:46:04.561Z,16.60
2022-10-26T05:48:32.358Z,16.60
2022-10-26T05:51:01.236Z,16.60
2022-10-26T05:53:29.537Z,16.60
2022-10-26T05:55:59.435Z,16.60
2022-10-26T05:58:27.752Z,16.60
2022-10-26T06:01:13.150Z,16.60
2022-10-26T06:03:55.671Z,16.60
2022-10-26T06:06:24.392Z,16.60
2022-10-26T06:08:52.704Z,16.60
2022-10-26T06:11:22.485Z,16.50
2022-10-26T06:13:51.419Z,16.50
2022-10-26T06:16:32.476Z,16.50
2022-10-26T06:19:09.976Z,16.50
2022-10-26T06:21:55.686Z,16.50
2022-10-26T06:24:31.703Z,16.60
2022-10-26T06:27:08.708Z,16.60
2022-10-26T06:29:45.830Z,16.60
2022-10-26T06:32:13.657Z,16.50
2022-10-26T06:34:46.819Z,16.60
2022-10-26T06:37:15.114Z,16.60
2022-10-26T06:39:48.784Z,16.50
2022-10-26T06:42:21.409Z,16.50
2022-10-26T06:44:49.891Z,16.60
2022-10-26T06:47:26.078Z,16.50
2022-10-26T06:50:02.263Z,16.60
2022-10-26T06:52:36.373Z,16.60
2022-10-26T06:55:05.227Z,16.60
2022-10-26T06:57:36.751Z,16.60
2022-10-26T07:00:08.265Z,16.60
2022-10-26T07:02:36.153Z,16.60
2022-10-26T07:05:04.285Z,16.60
2022-10-26T07:07:32.858Z,16.60
2022-10-26T07:10:00.654Z,16.70
2022-10-26T07:12:32.145Z,16.70
2022-10-26T07:15:02.754Z,16.70
2022-10-26T07:17:30.657Z,16.70
2022-10-26T07:19:58.686Z,16.70
2022-10-26T07:22:26.661Z,16.80
2022-10-26T07:24:56.994Z,16.70
2022-10-26T07:27:27.086Z,16.80
2022-10-26T07:29:54.908Z,16.80
2022-10-26T07:32:24.100Z,16.80
2022-10-26T07:34:51.950Z,16.80
2022-10-26T07:37:19.838Z,16.90
2022-10-26T07:39:47.658Z,16.90
2022-10-26T07:42:16.736Z,16.90
2022-10-26T07:44:44.553Z,16.90
2022-10-26T07:47:12.385Z,16.90
2022-10-26T07:49:41.529Z,16.90
2022-10-26T07:52:10.621Z,16.90
2022-10-26T07:54:38.446Z,16.90
2022-10-26T07:57:06.242Z,16.80
2022-10-26T07:59:34.252Z,16.90
2022-10-26T08:02:02.102Z,16.90
2022-10-26T08:04:29.977Z,16.90
2022-10-26T08:06:59.203Z,16.90
2022-10-26T08:09:26.989Z,16.90
2022-10-26T08:11:54.794Z,16.90
2022-10-26T08:14:22.609Z,17.00
2022-10-26T08:16:52.394Z,17.00
2022-10-26T08:19:20.785Z,17.00
2022-10-26T08:21:48.569Z,17.10
2022-10-26T08:24:17.725Z,17.10
2022-10-26T08:26:45.542Z,17.20
2022-10-26T08:29:13.369Z,17.30
2022-10-26T08:31:41.243Z,17.40
2022-10-26T08:34:09.501Z,17.50
2022-10-26T08:36:37.357Z,17.60
2022-10-26T08:39:05.367Z,17.70
2022-10-26T08:41:38.674Z,17.80
2022-10-26T08:44:19.519Z,17.90
2022-10-26T08:46:51.606Z,18.00
2022-10-26T08:49:24.234Z,18.20
2022-10-26T08:51:55.821Z,18.20
2022-10-26T08:54:33.433Z,18.30
2022-10-26T08:57:05.944Z,18.40
2022-10-26T08:59:39.545Z,18.50
2022-10-26T09:02:13.337Z,18.60
2022-10-26T09:04:41.221Z,18.70
2022-10-26T09:07:15.878Z,18.80
2022-10-26T09:09:51.554Z,18.90
2022-10-26T09:12:28.981Z,19.00
2022-10-26T09:15:09.995Z,19.10
2022-10-26T09:17:45.907Z,19.20
2022-10-26T09:20:54.372Z,19.30
2022-10-26T09:23:55.140Z,19.50
2022-10-26T09:26:32.422Z,19.70
2022-10-26T09:29:04.411Z,19.80
2022-10-26T09:31:43.354Z,19.90
2022-10-26T09:34:21.555Z,20.10
2022-10-26T09:36:55.000Z,20.40
2022-10-26T09:39:29.836Z,20.70
2022-10-26T09:42:01.230Z,21.20
2022-10-26T09:44:37.723Z,21.50
2022-10-26T09:47:11.758Z,21.80
2022-10-26T09:49:44.669Z,22.10
2022-10-26T09:52:12.612Z,22.30
2022-10-26T09:54:40.420Z,22.40
2022-10-26T09:57:09.856Z,22.60
2022-10-26T09:59:41.313Z,22.70
2022-10-26T10:02:37.134Z,23.00
2022-10-26T10:08:22.415Z,24.20
2022-10-26T10:11:02.716Z,25.00
2022-10-26T10:13:32.854Z,25.60
2022-10-26T10:16:13.523Z,26.00
2022-10-26T10:18:42.939Z,26.40
2022-10-26T10:21:11.942Z,26.70
2022-10-26T10:23:51.883Z,27.10
2022-10-26T10:26:19.958Z,27.60
2022-10-26T10:28:59.423Z,27.90
2022-10-26T10:31:33.866Z,28.00
2022-10-26T10:34:01.865Z,28.00
2022-10-26T10:36:31.629Z,27.80
2022-10-26T10:39:00.409Z,27.50
2022-10-26T10:41:30.548Z,27.20
2022-10-26T10:44:05.969Z,26.80
2022-10-26T10:46:37.571Z,26.50
2022-10-26T10:49:07.393Z,26.10
2022-10-26T10:51:40.265Z,25.80
2022-10-26T10:54:22.029Z,25.50
2022-10-26T10:56:52.845Z,25.20
2022-10-26T10:59:34.865Z,24.90
2022-10-26T11:02:35.079Z,24.60
2022-10-26T11:05:24.912Z,24.30
2022-10-26T11:08:01.405Z,24.00
2022-10-26T11:10:34.788Z,23.80
2022-10-26T11:13:08.277Z,23.60
2022-10-26T11:15:40.762Z,23.40
2022-10-26T11:18:16.036Z,23.30
2022-10-26T11:20:48.798Z,23.10
2022-10-26T11:23:22.166Z,23.00
2022-10-26T11:25:55.008Z,22.90
2022-10-26T11:28:38.430Z,22.80
2022-10-26T11:31:11.883Z,22.80
2022-10-26T11:33:46.835Z,22.80
2022-10-26T11:36:19.825Z,22.90
2022-10-26T11:38:57.094Z,23.00
2022-10-26T11:41:30.510Z,23.20
2022-10-26T11:44:06.595Z,23.50
2022-10-26T11:46:39.737Z,23.70
2022-10-26T11:49:16.576Z,23.90
2022-10-26T11:51:50.369Z,24.20
2022-10-26T11:54:22.627Z,24.50
2022-10-26T11:56:54.731Z,24.70
2022-10-26T11:59:27.948Z,24.70
2022-10-26T12:02:03.419Z,24.70
2022-10-26T12:04:36.615Z,24.70
2022-10-26T12:07:09.540Z,24.60
2022-10-26T12:09:39.870Z,24.50
2022-10-26T12:12:15.426Z,24.40
2022-10-26T12:14:49.424Z,24.30
2022-10-26T12:17:25.935Z,24.10
2022-10-26T12:20:00.695Z,24.00
2022-10-26T12:22:33.716Z,23.80
2022-10-26T12:25:18.881Z,23.60
2022-10-26T12:27:54.838Z,23.40
2022-10-26T12:30:30.985Z,23.20
2022-10-26T12:33:00.499Z,23.10
2022-10-26T12:35:44.294Z,22.90
2022-10-26T12:38:49.481Z,22.80
2022-10-26T12:41:25.766Z,22.70
2022-10-26T12:43:58.286Z,22.60
2022-10-26T12:46:45.332Z,22.50
2022-10-26T12:49:58.122Z,22.50
2022-10-26T12:52:47.300Z,22.40
2022-10-26T12:55:38.938Z,22.40
2022-10-26T12:58:55.716Z,22.30
2022-10-26T13:02:01.362Z,22.30
2022-10-26T13:05:08.813Z,22.20
2022-10-26T13:07:38.919Z,22.20
2022-10-26T13:10:21.391Z,22.10
2022-10-26T13:12:52.978Z,22.10
2022-10-26T13:15:24.254Z,22.10
2022-10-26T13:18:08.535Z,22.00
2022-10-26T13:20:38.490Z,22.00
2022-10-26T13:23:17.723Z,22.00
2022-10-26T13:26:03.326Z,22.00
2022-10-26T13:28:34.522Z,22.00
2022-10-26T13:31:02.384Z,22.00
2022-10-26T13:33:37.738Z,22.00
2022-10-26T13:36:17.993Z,22.00
2022-10-26T13:38:47.741Z,22.00
2022-10-26T13:41:28.271Z,22.00
2022-10-26T13:43:56.258Z,22.00
2022-10-26T13:46:28.926Z,21.90
2022-10-26T13:49:04.834Z,22.00
2022-10-26T13:51:41.859Z,22.00
2022-10-26T13:54:20.765Z,21.90
2022-10-26T13:57:02.845Z,22.00
2022-10-26T13:59:32.779Z,22.00
2022-10-26T14:02:18.497Z,22.00
2022-10-26T14:04:52.820Z,22.00
2022-10-26T14:07:23.677Z,22.00
2022-10-26T14:09:53.836Z,22.00
2022-10-26T14:12:23.606Z,22.10
2022-10-26T14:14:52.192Z,22.10
2022-10-26T14:17:22.452Z,22.10
2022-10-26T14:19:51.468Z,22.10
2022-10-26T14:22:23.979Z,22.10
2022-10-26T14:27:33.365Z,22.10
2022-10-26T14:30:21.715Z,22.10
2022-10-26T14:32:50.518Z,22.10
2022-10-26T14:35:19.817Z,22.10
2022-10-26T14:37:52.278Z,22.10
2022-10-26T14:40:22.188Z,22.10
2022-10-26T14:42:55.530Z,22.10
2022-10-26T14:45:29.922Z,22.10
2022-10-26T14:48:22.597Z,22.10
2022-10-26T14:51:00.813Z,22.00
2022-10-26T14:53:35.465Z,22.00
2022-10-26T14:56:05.465Z,21.90
2022-10-26T14:58:35.240Z,21.90
2022-10-26T15:01:33.199Z,21.90
2022-10-26T15:04:06.615Z,21.80
2022-10-26T15:06:45.998Z,21.80
2022-10-26T15:09:38.433Z,21.80
2022-10-26T15:12:07.022Z,21.70
2022-10-26T15:14:36.946Z,21.60
2022-10-26T15:17:05.173Z,21.60
2022-10-26T15:19:33.657Z,21.60
2022-10-26T15:22:01.566Z,21.50
2022-10-26T15:24:36.092Z,21.40
2022-10-26T15:27:15.703Z,21.40
2022-10-26T15:29:46.859Z,21.30
2022-10-26T15:32:32.655Z,21.30
2022-10-26T15:35:23.378Z,21.30
2022-10-26T15:37:53.674Z,21.20
2022-10-26T15:40:21.667Z,21.20
2022-10-26T15:42:52.807Z,21.10
2022-10-26T15:45:24.240Z,21.10
2022-10-26T15:47:53.545Z,21.10
2022-10-26T15:50:24.261Z,21.00
2022-10-26T15:52:57.692Z,21.00
2022-10-26T15:55:25.547Z,20.90
2022-10-26T15:57:53.412Z,20.90
2022-10-26T16:00:22.773Z,20.80
2022-10-26T16:02:50.881Z,20.80
2022-10-26T16:05:18.838Z,20.70
2022-10-26T16:07:48.816Z,20.60
2022-10-26T16:10:21.229Z,20.60
2022-10-26T16:12:50.123Z,20.60
2022-10-26T16:15:24.607Z,20.50
2022-10-26T16:17:53.544Z,20.50
2022-10-26T16:20:23.934Z,20.40
2022-10-26T16:22:53.526Z,20.40
2022-10-26T16:25:24.912Z,20.30
2022-10-26T16:27:54.457Z,20.30
2022-10-26T16:30:29.461Z,20.20
2022-10-26T16:32:58.493Z,20.20
2022-10-26T16:35:26.310Z,20.10
2022-10-26T16:37:54.188Z,20.10
2022-10-26T16:40:22.003Z,20.10
2022-10-26T16:42:50.170Z,20.00
2022-10-26T16:45:18.221Z,20.00
2022-10-26T16:47:47.507Z,20.00
2022-10-26T16:50:15.950Z,19.90
2022-10-26T16:52:43.805Z,19.90
2022-10-26T16:55:11.639Z,19.90
2022-10-26T16:57:39.741Z,19.80
2022-10-26T17:00:08.631Z,19.80
2022-10-26T17:02:36.590Z,19.80
2022-10-26T17:05:07.451Z,19.80
2022-10-26T17:07:35.736Z,19.70
2022-10-26T17:10:03.581Z,19.70
2022-10-26T17:12:31.634Z,19.70
2022-10-26T17:15:00.577Z,19.70
2022-10-26T17:17:28.524Z,19.70
2022-10-26T17:19:56.362Z,19.70
2022-10-26T17:22:25.562Z,19.70
2022-10-26T17:24:53.421Z,19.60
2022-10-26T17:27:21.277Z,19.60
2022-10-26T17:29:49.107Z,19.60
2022-10-26T17:32:17.220Z,19.60
2022-10-26T17:34:45.054Z,19.50
2022-10-26T17:37:12.857Z,19.50
2022-10-26T17:39:42.042Z,19.50
2022-10-26T17:42:09.846Z,19.50
2022-10-26T17:44:39.008Z,19.50
2022-10-26T17:47:06.921Z,19.50
2022-10-26T17:49:36.220Z,19.40
2022-10-26T17:52:05.837Z,19.40
2022-10-26T17:54:33.722Z,19.40
2022-10-26T17:57:03.035Z,19.30
2022-10-26T17:59:30.931Z,19.20
2022-10-26T18:01:58.812Z,19.20
2022-10-26T18:04:26.686Z,19.10
2022-10-26T18:06:54.652Z,19.00
2022-10-26T18:09:22.584Z,19.00
2022-10-26T18:11:53.448Z,18.90
2022-10-26T18:14:25.260Z,18.80
2022-10-26T18:16:53.140Z,18.80
2022-10-26T18:19:21.008Z,18.70
2022-10-26T18:21:48.868Z,18.60
2022-10-26T18:24:16.665Z,18.60
2022-10-26T18:26:44.460Z,18.50
2022-10-26T18:29:13.914Z,18.50
2022-10-26T18:31:45.767Z,18.40
2022-10-26T18:34:13.624Z,18.40
2022-10-26T18:36:41.455Z,18.30
2022-10-26T18:39:09.390Z,18.30
2022-10-26T18:41:37.252Z,18.20
2022-10-26T18:44:05.507Z,18.20
2022-10-26T18:46:39.576Z,18.10
2022-10-26T18:49:09.908Z,18.10
2022-10-26T18:51:37.769Z,18.10
2022-10-26T18:54:05.880Z,18.00
2022-10-26T18:56:33.716Z,18.00
2022-10-26T18:59:01.923Z,18.00
2022-10-26T19:01:30.901Z,17.90
2022-10-26T19:04:00.415Z,17.90
2022-10-26T19:06:31.737Z,17.90
2022-10-26T19:09:00.374Z,17.90
2022-10-26T19:11:30.311Z,17.90
2022-10-26T19:13:58.445Z,17.80
2022-10-26T19:19:16.680Z,17.80
2022-10-26T19:21:46.994Z,17.70
2022-10-26T19:24:16.724Z,17.70
2022-10-26T19:26:46.732Z,17.70
2022-10-26T19:29:16.386Z,17.60
2022-10-26T19:31:46.078Z,17.60
2022-10-26T19:34:15.837Z,17.50
2022-10-26T19:36:46.185Z,17.50
2022-10-26T19:39:16.175Z,17.40
2022-10-26T19:41:44.794Z,17.30
2022-10-26T19:44:14.039Z,17.30
2022-10-26T19:46:43.104Z,17.20
2022-10-26T19:49:12.417Z,17.20
2022-10-26T19:51:40.347Z,17.10
2022-10-26T19:54:08.579Z,17.10
2022-10-26T19:56:38.735Z,17.00
2022-10-26T19:59:08.064Z,17.00
2022-10-26T20:01:36.346Z,17.00
2022-10-26T20:04:04.916Z,16.90
2022-10-26T20:06:32.712Z,16.90
2022-10-26T20:09:02.151Z,16.90
2022-10-26T20:11:31.992Z,16.80
2022-10-26T20:14:01.145Z,16.80
2022-10-26T20:16:28.989Z,16.80
2022-10-26T20:18:56.770Z,16.70
2022-10-26T20:21:24.582Z,16.70
2022-10-26T20:23:52.383Z,16.70
2022-10-26T20:26:21.383Z,16.60
2022-10-26T20:28:51.800Z,16.50
2022-10-26T20:31:21.006Z,16.50
2022-10-26T20:33:51.672Z,16.50
2022-10-26T20:36:19.586Z,16.40
2022-10-26T20:38:47.949Z,16.40
2022-10-26T20:41:16.342Z,16.40
2022-10-26T20:43:44.874Z,16.30
2022-10-26T20:46:18.177Z,16.30
2022-10-26T20:48:48.017Z,16.30
2022-10-26T20:51:22.278Z,16.20
2022-10-26T20:54:01.475Z,16.20
2022-10-26T20:56:29.850Z,16.20
2022-10-26T20:58:59.176Z,16.10
2022-10-26T21:01:29.522Z,16.00
2022-10-26T21:04:00.168Z,16.00
2022-10-26T21:06:28.654Z,16.00
2022-10-26T21:08:57.775Z,16.00
2022-10-26T21:11:26.814Z,16.00
2022-10-26T21:13:55.665Z,15.90
2022-10-26T21:16:23.591Z,15.90
2022-10-26T21:18:51.384Z,15.80
2022-10-26T21:21:20.571Z,15.80
2022-10-26T21:23:48.420Z,15.80
2022-10-26T21:26:16.286Z,15.80
2022-10-26T21:28:45.748Z,15.70
2022-10-26T21:31:15.858Z,15.70
2022-10-26T21:33:44.417Z,15.70
2022-10-26T21:36:13.351Z,15.70
2022-10-26T21:38:43.884Z,15.60
2022-10-26T21:41:13.400Z,15.60
2022-10-26T21:43:42.914Z,15.60
2022-10-26T21:46:11.437Z,15.50
2022-10-26T21:48:40.935Z,15.50
2022-10-26T21:51:11.683Z,15.50
2022-10-26T21:53:39.622Z,15.50
2022-10-26T21:56:10.891Z,15.50
2022-10-26T21:58:39.073Z,15.40
2022-10-26T22:01:08.148Z,15.40
2022-10-26T22:03:36.276Z,15.40
2022-10-26T22:06:05.178Z,15.30
2022-10-26T22:08:33.149Z,15.30
2022-10-26T22:11:10.520Z,15.30
2022-10-26T22:13:41.212Z,15.20
2022-10-26T22:16:10.833Z,15.20
2022-10-26T22:18:40.125Z,15.20
2022-10-26T22:21:09.215Z,15.10
2022-10-26T22:23:38.972Z,15.10
2022-10-26T22:26:10.076Z,15.10
2022-10-26T22:28:42.467Z,15.00
2022-10-26T22:31:12.620Z,15.00
2022-10-26T22:33:40.510Z,15.00
2022-10-26T22:36:10.670Z,15.00
2022-10-26T22:38:38.546Z,15.00
2022-10-26T22:41:08.428Z,15.00
2022-10-26T22:43:37.511Z,15.00
2022-10-26T22:46:07.217Z,15.10
2022-10-26T22:48:35.563Z,15.10
2022-10-26T22:51:06.601Z,15.10
2022-10-26T22:53:34.463Z,15.20
2022-10-26T22:56:02.759Z,15.20
2022-10-26T22:58:31.958Z,15.20
2022-10-26T23:01:03.643Z,15.20
2022-10-26T23:03:31.546Z,15.20
2022-10-26T23:05:59.416Z,15.20
2022-10-26T23:08:27.739Z,15.20
2022-10-26T23:10:59.541Z,15.20
2022-10-26T23:13:27.847Z,15.20
2022-10-26T23:15:57.241Z,15.10
2022-10-26T23:18:25.050Z,15.10
2022-10-26T23:20:52.965Z,15.10
2022-10-26T23:23:20.790Z,15.10
2022-10-26T23:25:48.585Z,15.10
2022-10-26T23:28:16.413Z,15.10
2022-10-26T23:30:46.313Z,15.00
2022-10-26T23:33:15.564Z,15.00
2022-10-26T23:35:43.638Z,15.00
2022-10-26T23:38:11.493Z,15.00
2022-10-26T23:40:39.346Z,14.90
2022-10-26T23:43:07.160Z,14.90
2022-10-26T23:45:34.942Z,14.80
2022-10-26T23:48:02.728Z,14.80
2022-10-26T23:50:32.014Z,14.80
2022-10-26T23:52:59.900Z,14.80
2022-10-26T23:55:27.746Z,14.80
2022-10-26T23:57:55.655Z,14.80
